createdAt,value
2023-05-11T00:01:11.730Z,10.79
2023-05-11T00:03:58.104Z,10.49
2023-05-11T00:06:44.138Z,10.78
2023-05-11T00:09:30.754Z,10.64
2023-05-11T00:12:17.508Z,10.54
2023-05-11T00:15:04.187Z,10.67
2023-05-11T00:17:50.076Z,10.65
2023-05-11T00:20:36.441Z,10.53
2023-05-11T00:23:22.503Z,10.25
2023-05-11T00:26:08.412Z,10.27
2023-05-11T00:28:54.249Z,10.43
2023-05-11T00:31:40.541Z,10.30
2023-05-11T00:34:26.937Z,10.12
2023-05-11T00:37:13.643Z,10.22
2023-05-11T00:40:00.132Z,10.08
2023-05-11T00:42:46.487Z,10.14
2023-05-11T00:45:33.095Z,10.04
2023-05-11T00:48:19.158Z,9.97
2023-05-11T00:51:06.977Z,10.03
2023-05-11T00:53:53.471Z,9.72
2023-05-11T00:56:39.603Z,9.98
2023-05-11T00:59:25.569Z,9.92
2023-05-11T01:02:13.020Z,9.91
2023-05-11T01:05:00.200Z,9.69
2023-05-11T01:07:49.254Z,9.96
2023-05-11T01:10:47.175Z,9.94
2023-05-11T01:13:57.637Z,9.93
2023-05-11T01:16:49.196Z,9.82
2023-05-11T01:19:45.184Z,9.90
2023-05-11T01:23:11.039Z,9.86
2023-05-11T01:26:33.769Z,9.73
2023-05-11T01:29:41.757Z,9.64
2023-05-11T01:32:29.272Z,9.80
2023-05-11T01:35:19.265Z,9.55
2023-05-11T01:38:07.021Z,9.65
2023-05-11T01:40:56.098Z,9.84
2023-05-11T01:43:44.618Z,9.79
2023-05-11T01:46:32.956Z,9.81
2023-05-11T01:49:19.335Z,9.67
2023-05-11T01:52:07.913Z,9.69
2023-05-11T01:54:55.510Z,9.69
2023-05-11T01:57:42.205Z,9.60
2023-05-11T02:00:28.270Z,9.68
2023-05-11T02:03:15.781Z,9.54
2023-05-11T02:06:03.859Z,9.32
2023-05-11T02:08:51.158Z,9.46
2023-05-11T02:11:37.814Z,9.56
2023-05-11T02:14:29.195Z,9.55
2023-05-11T02:17:16.467Z,9.48
2023-05-11T02:20:04.640Z,9.38
2023-05-11T02:22:52.978Z,9.41
2023-05-11T02:25:40.159Z,9.16
2023-05-11T02:28:26.396Z,9.04
2023-05-11T02:31:17.973Z,8.99
2023-05-11T02:34:14.995Z,9.17
2023-05-11T02:37:02.741Z,9.03
2023-05-11T02:40:00.056Z,8.93
2023-05-11T02:42:49.669Z,8.94
2023-05-11T02:45:36.699Z,8.86
2023-05-11T02:48:40.533Z,8.83
2023-05-11T02:51:32.572Z,8.90
2023-05-11T02:54:19.652Z,8.85
2023-05-11T02:57:08.830Z,8.63
2023-05-11T02:59:56.100Z,8.66
2023-05-11T03:02:42.274Z,8.54
2023-05-11T03:05:29.145Z,8.38
2023-05-11T03:08:15.463Z,8.58
2023-05-11T03:11:02.660Z,8.46
2023-05-11T03:13:48.522Z,8.54
2023-05-11T03:16:38.178Z,8.24
2023-05-11T03:19:27.997Z,8.48
2023-05-11T03:22:15.698Z,8.16
2023-05-11T03:25:03.927Z,8.24
2023-05-11T03:27:53.933Z,8.18
2023-05-11T03:30:40.797Z,8.48
2023-05-11T03:33:27.049Z,8.38
2023-05-11T03:36:14.209Z,8.53
2023-05-11T03:39:02.311Z,8.60
2023-05-11T03:41:52.976Z,8.52
2023-05-11T03:44:42.189Z,8.66
2023-05-11T03:47:29.031Z,8.69
2023-05-11T03:50:16.318Z,8.73
2023-05-11T03:53:02.703Z,8.62
2023-05-11T03:55:50.137Z,8.58
2023-05-11T03:58:42.506Z,8.85
2023-05-11T04:01:29.327Z,8.66
2023-05-11T04:04:15.468Z,8.86
2023-05-11T04:07:02.392Z,9.11
2023-05-11T04:09:48.397Z,9.33
2023-05-11T04:12:34.486Z,9.41
2023-05-11T04:15:20.630Z,9.40
2023-05-11T04:18:08.140Z,9.56
2023-05-11T04:20:54.354Z,9.58
2023-05-11T04:23:40.875Z,9.52
2023-05-11T04:26:27.943Z,9.59
2023-05-11T04:29:14.498Z,9.89
2023-05-11T04:32:00.841Z,9.91
2023-05-11T04:34:48.159Z,9.94
2023-05-11T04:37:37.282Z,10.01
2023-05-11T04:40:26.806Z,10.07
2023-05-11T04:43:14.465Z,9.92
2023-05-11T04:46:02.703Z,10.21
2023-05-11T04:48:49.090Z,10.46
2023-05-11T04:51:35.637Z,10.64
2023-05-11T04:54:21.774Z,10.88
2023-05-11T04:57:09.013Z,10.70
2023-05-11T04:59:55.230Z,10.89
2023-05-11T05:02:42.075Z,10.93
2023-05-11T05:05:28.545Z,11.10
2023-05-11T05:08:15.889Z,11.29
2023-05-11T05:11:01.975Z,11.46
2023-05-11T05:13:48.326Z,11.70
2023-05-11T05:16:34.862Z,11.97
2023-05-11T05:19:21.989Z,12.09
2023-05-11T05:22:09.807Z,12.23
2023-05-11T05:24:56.042Z,12.52
2023-05-11T05:27:42.068Z,12.57
2023-05-11T05:30:33.277Z,12.60
2023-05-11T05:33:19.059Z,12.76
2023-05-11T05:36:05.449Z,12.95
2023-05-11T05:38:51.342Z,13.05
2023-05-11T05:41:38.262Z,13.13
2023-05-11T05:44:27.809Z,13.21
2023-05-11T05:47:14.132Z,13.12
2023-05-11T05:50:00.179Z,13.44
2023-05-11T05:52:46.702Z,13.40
2023-05-11T05:55:32.836Z,13.75
2023-05-11T05:58:21.745Z,13.88
2023-05-11T06:01:08.805Z,13.99
2023-05-11T06:03:55.872Z,13.77
2023-05-11T06:06:43.688Z,14.06
2023-05-11T06:09:30.074Z,14.26
2023-05-11T06:12:16.461Z,14.25
2023-05-11T06:15:07.436Z,14.45
2023-05-11T06:17:56.688Z,14.71
2023-05-11T06:20:43.909Z,14.69
2023-05-11T06:23:31.648Z,15.12
2023-05-11T06:26:17.889Z,15.33
2023-05-11T06:29:03.990Z,15.40
2023-05-11T06:31:54.502Z,15.38
2023-05-11T06:34:41.365Z,15.56
2023-05-11T06:37:30.440Z,15.67
2023-05-11T06:40:16.684Z,15.55
2023-05-11T06:43:03.315Z,15.66
2023-05-11T06:46:03.449Z,15.46
2023-05-11T06:48:50.454Z,15.53
2023-05-11T06:51:36.339Z,15.99
2023-05-11T06:54:22.964Z,16.03
2023-05-11T06:57:08.602Z,15.97
2023-05-11T06:59:54.686Z,15.89
2023-05-11T07:02:42.405Z,15.96
2023-05-11T07:05:32.720Z,16.01
2023-05-11T07:08:18.625Z,15.97
2023-05-11T07:11:05.228Z,15.95
2023-05-11T07:13:51.364Z,15.80
2023-05-11T07:16:41.270Z,15.95
2023-05-11T07:19:27.811Z,15.99
2023-05-11T07:22:15.221Z,15.93
2023-05-11T07:25:01.234Z,15.98
2023-05-11T07:27:47.731Z,16.25
2023-05-11T07:30:33.902Z,16.44
2023-05-11T07:33:20.042Z,16.41
2023-05-11T07:36:07.329Z,16.52
2023-05-11T07:38:58.092Z,16.41
2023-05-11T07:41:43.973Z,16.67
2023-05-11T07:44:30.158Z,16.80
2023-05-11T07:47:17.715Z,16.88
2023-05-11T07:50:04.059Z,17.02
2023-05-11T07:52:49.943Z,16.96
2023-05-11T07:55:36.187Z,16.93
2023-05-11T07:58:21.838Z,17.13
2023-05-11T08:01:07.944Z,17.18
2023-05-11T08:03:57.284Z,17.11
2023-05-11T08:06:43.705Z,17.40
2023-05-11T08:09:30.065Z,17.56
2023-05-11T08:12:16.401Z,17.62
2023-05-11T08:15:03.054Z,17.73
2023-05-11T08:17:52.096Z,17.75
2023-05-11T08:20:39.809Z,17.96
2023-05-11T08:23:28.698Z,17.82
2023-05-11T08:26:18.395Z,17.87
2023-05-11T08:29:04.967Z,17.75
2023-05-11T08:31:50.872Z,17.69
2023-05-11T08:34:37.460Z,17.79
2023-05-11T08:37:23.803Z,17.74
2023-05-11T08:40:14.821Z,17.80
2023-05-11T08:43:05.829Z,17.93
2023-05-11T08:45:58.670Z,17.86
2023-05-11T08:48:47.961Z,17.66
2023-05-11T08:51:34.153Z,17.84
2023-05-11T08:54:20.133Z,17.82
2023-05-11T08:57:07.251Z,17.80
2023-05-11T08:59:53.515Z,17.80
2023-05-11T09:02:40.011Z,17.74
2023-05-11T09:05:28.040Z,17.90
2023-05-11T09:08:15.515Z,17.86
2023-05-11T09:11:01.424Z,18.03
2023-05-11T09:13:48.491Z,18.00
2023-05-11T09:16:37.488Z,18.00
2023-05-11T09:19:24.030Z,18.06
2023-05-11T09:22:10.009Z,18.01
2023-05-11T09:25:02.981Z,17.98
2023-05-11T09:27:49.114Z,17.77
2023-05-11T09:30:35.347Z,18.02
2023-05-11T09:33:24.904Z,17.99
2023-05-11T09:36:22.934Z,18.02
2023-05-11T09:39:15.516Z,18.01
2023-05-11T09:42:23.339Z,18.05
2023-05-11T09:45:13.195Z,18.22
2023-05-11T09:47:59.272Z,18.26
2023-05-11T09:50:46.184Z,18.32
2023-05-11T09:53:39.168Z,18.28
2023-05-11T09:56:54.458Z,18.11
2023-05-11T09:59:41.787Z,18.25
2023-05-11T10:02:30.022Z,18.25
2023-05-11T10:05:17.093Z,18.41
2023-05-11T10:08:04.653Z,18.46
2023-05-11T10:10:51.107Z,18.54
2023-05-11T10:13:40.899Z,18.58
2023-05-11T10:16:27.121Z,18.66
2023-05-11T10:19:13.652Z,18.72
2023-05-11T10:22:00.988Z,18.76
2023-05-11T10:24:47.013Z,18.57
2023-05-11T10:27:34.063Z,18.12
2023-05-11T10:30:20.932Z,18.54
2023-05-11T10:33:07.572Z,18.50
2023-05-11T10:35:54.329Z,18.61
2023-05-11T10:38:40.845Z,18.62
2023-05-11T10:42:13.608Z,18.56
2023-05-11T10:45:14.369Z,18.60
2023-05-11T10:48:28.279Z,18.62
2023-05-11T10:51:49.221Z,18.74
2023-05-11T10:54:57.326Z,18.84
2023-05-11T10:58:37.565Z,18.71
2023-05-11T11:01:30.799Z,18.72
2023-05-11T11:04:17.510Z,18.59
2023-05-11T11:07:07.058Z,18.56
2023-05-11T11:09:56.308Z,18.65
2023-05-11T11:13:02.033Z,18.84
2023-05-11T11:15:54.452Z,18.72
2023-05-11T11:18:40.740Z,18.61
2023-05-11T11:21:42.809Z,18.65
2023-05-11T11:24:38.286Z,18.69
2023-05-11T11:27:47.665Z,18.73
2023-05-11T11:30:33.549Z,18.74
2023-05-11T11:33:20.078Z,18.75
2023-05-11T11:36:06.123Z,18.68
2023-05-11T11:39:02.864Z,18.66
2023-05-11T11:42:06.953Z,18.70
2023-05-11T11:45:29.362Z,18.66
2023-05-11T11:48:24.562Z,18.71
2023-05-11T11:51:12.291Z,18.71
2023-05-11T11:54:00.706Z,18.67
2023-05-11T11:56:47.398Z,18.39
2023-05-11T11:59:47.274Z,18.56
2023-05-11T12:02:34.978Z,18.55
2023-05-11T12:05:24.022Z,18.48
2023-05-11T12:08:11.746Z,18.62
2023-05-11T12:10:58.699Z,18.60
2023-05-11T12:13:45.830Z,18.63
2023-05-11T12:16:34.431Z,18.64
2023-05-11T12:19:24.652Z,18.68
2023-05-11T12:22:14.006Z,18.70
2023-05-11T12:25:06.017Z,18.64
2023-05-11T12:28:03.363Z,18.68
2023-05-11T12:30:56.320Z,18.71
2023-05-11T12:33:50.598Z,18.65
2023-05-11T12:36:36.884Z,18.71
2023-05-11T12:39:26.000Z,18.66
2023-05-11T12:42:18.751Z,18.72
2023-05-11T12:45:05.755Z,18.52
2023-05-11T12:47:54.373Z,18.75
2023-05-11T12:50:46.860Z,18.74
2023-05-11T12:53:37.140Z,18.58
2023-05-11T12:56:22.984Z,18.67
2023-05-11T12:59:43.805Z,18.69
2023-05-11T13:02:29.847Z,18.79
2023-05-11T13:05:17.036Z,18.72
2023-05-11T13:08:04.508Z,18.70
2023-05-11T13:10:51.032Z,18.70
2023-05-11T13:13:37.515Z,18.65
2023-05-11T13:16:25.066Z,18.63
2023-05-11T13:19:11.012Z,18.63
2023-05-11T13:21:58.715Z,18.42
2023-05-11T13:24:47.359Z,18.54
2023-05-11T13:27:33.831Z,18.68
2023-05-11T13:30:19.975Z,18.84
2023-05-11T13:33:06.601Z,18.81
2023-05-11T13:35:52.567Z,18.76
2023-05-11T13:38:39.015Z,18.82
2023-05-11T13:41:25.071Z,18.87
2023-05-11T13:44:11.252Z,18.78
2023-05-11T13:46:56.981Z,18.67
2023-05-11T13:49:43.322Z,18.69
2023-05-11T13:52:29.253Z,18.64
2023-05-11T13:55:15.876Z,18.61
2023-05-11T13:58:02.494Z,18.50
2023-05-11T14:01:06.669Z,18.83
2023-05-11T14:03:55.710Z,18.65
2023-05-11T14:06:43.212Z,18.85
2023-05-11T14:09:30.950Z,18.89
2023-05-11T14:12:18.072Z,18.73
2023-05-11T14:15:07.121Z,18.83
2023-05-11T14:17:56.781Z,18.84
2023-05-11T14:20:42.968Z,18.92
2023-05-11T14:23:29.380Z,18.73
2023-05-11T14:26:15.467Z,18.76
2023-05-11T14:29:01.966Z,18.67
2023-05-11T14:31:48.500Z,18.70
2023-05-11T14:34:35.301Z,18.41
2023-05-11T14:37:21.416Z,18.56
2023-05-11T14:40:08.630Z,18.52
2023-05-11T14:42:57.143Z,18.68
2023-05-11T14:45:48.487Z,18.71
2023-05-11T14:48:36.831Z,18.47
2023-05-11T14:51:24.979Z,18.78
2023-05-11T14:54:11.177Z,18.86
2023-05-11T14:56:59.622Z,18.87
2023-05-11T14:59:58.319Z,18.75
2023-05-11T15:02:45.912Z,18.82
2023-05-11T15:05:32.291Z,18.81
2023-05-11T15:08:29.176Z,18.81
2023-05-11T15:11:20.192Z,18.31
2023-05-11T15:14:10.725Z,18.78
2023-05-11T15:17:01.743Z,18.75
2023-05-11T15:19:48.338Z,18.83
2023-05-11T15:22:34.262Z,18.87
2023-05-11T15:25:21.455Z,18.39
2023-05-11T15:28:07.478Z,18.78
2023-05-11T15:30:54.064Z,18.71
2023-05-11T15:33:43.124Z,18.75
2023-05-11T15:36:33.291Z,18.64
2023-05-11T15:39:22.233Z,18.60
2023-05-11T15:42:09.860Z,18.73
2023-05-11T15:44:56.177Z,18.68
2023-05-11T15:47:48.671Z,18.66
2023-05-11T15:50:35.201Z,18.53
2023-05-11T15:53:21.794Z,18.70
2023-05-11T15:56:08.396Z,18.65
2023-05-11T15:58:55.035Z,18.58
2023-05-11T16:01:41.485Z,18.59
2023-05-11T16:04:28.206Z,18.56
2023-05-11T16:07:18.440Z,18.60
2023-05-11T16:10:06.640Z,18.52
2023-05-11T16:12:53.296Z,18.68
2023-05-11T16:15:40.392Z,18.54
2023-05-11T16:18:26.474Z,18.65
2023-05-11T16:21:14.593Z,18.60
2023-05-11T16:24:01.229Z,18.69
2023-05-11T16:26:48.649Z,18.69
2023-05-11T16:29:37.173Z,18.65
2023-05-11T16:32:26.779Z,18.67
2023-05-11T16:35:13.681Z,18.62
2023-05-11T16:38:01.247Z,18.74
2023-05-11T16:40:50.821Z,18.68
2023-05-11T16:43:42.218Z,18.72
2023-05-11T16:46:28.992Z,18.54
2023-05-11T16:49:20.700Z,18.44
2023-05-11T16:52:10.607Z,18.47
2023-05-11T16:54:59.137Z,18.38
2023-05-11T16:57:54.360Z,18.39
2023-05-11T17:00:41.951Z,18.23
2023-05-11T17:03:28.223Z,18.22
2023-05-11T17:06:24.151Z,18.27
2023-05-11T17:09:12.270Z,18.21
2023-05-11T17:11:58.946Z,18.18
2023-05-11T17:14:50.516Z,17.89
2023-05-11T17:17:41.250Z,17.99
2023-05-11T17:20:27.804Z,17.90
2023-05-11T17:23:25.613Z,17.99
2023-05-11T17:26:12.740Z,17.88
2023-05-11T17:29:00.441Z,17.87
2023-05-11T17:31:49.214Z,17.72
2023-05-11T17:34:36.111Z,17.78
2023-05-11T17:37:31.239Z,17.60
2023-05-11T17:40:18.879Z,17.66
2023-05-11T17:43:13.393Z,17.44
2023-05-11T17:46:02.613Z,17.49
2023-05-11T17:48:52.656Z,17.27
2023-05-11T17:51:38.859Z,17.23
2023-05-11T17:54:27.316Z,17.24
2023-05-11T17:57:14.092Z,17.07
2023-05-11T18:00:00.044Z,16.96
2023-05-11T18:02:48.763Z,16.96
2023-05-11T18:05:47.545Z,16.87
2023-05-11T18:08:36.795Z,16.85
2023-05-11T18:11:26.460Z,16.75
2023-05-11T18:14:12.819Z,16.57
2023-05-11T18:17:00.069Z,16.44
2023-05-11T18:19:46.612Z,16.16
2023-05-11T18:22:34.158Z,16.34
2023-05-11T18:25:21.585Z,16.22
2023-05-11T18:28:07.486Z,16.16
2023-05-11T18:30:54.353Z,15.93
2023-05-11T18:33:40.246Z,15.95
2023-05-11T18:36:26.521Z,15.66
2023-05-11T18:39:14.299Z,15.72
2023-05-11T18:42:01.802Z,15.57
2023-05-11T18:44:53.597Z,15.68
2023-05-11T18:47:41.932Z,15.54
2023-05-11T18:50:29.759Z,15.48
2023-05-11T18:53:15.951Z,15.40
2023-05-11T18:56:05.633Z,15.28
2023-05-11T18:58:51.919Z,15.32
2023-05-11T19:01:46.933Z,15.25
2023-05-11T19:04:33.608Z,15.20
2023-05-11T19:07:20.405Z,15.02
2023-05-11T19:10:08.210Z,14.98
2023-05-11T19:12:54.395Z,14.83
2023-05-11T19:15:40.609Z,14.90
2023-05-11T19:18:27.941Z,14.68
2023-05-11T19:21:14.162Z,14.69
2023-05-11T19:24:00.165Z,14.63
2023-05-11T19:26:52.383Z,14.43
2023-05-11T19:29:49.691Z,14.51
2023-05-11T19:32:36.438Z,14.36
2023-05-11T19:35:22.834Z,14.16
2023-05-11T19:38:09.165Z,14.36
2023-05-11T19:40:55.704Z,14.30
2023-05-11T19:43:42.661Z,13.92
2023-05-11T19:46:29.174Z,13.98
2023-05-11T19:49:16.414Z,13.97
2023-05-11T19:52:03.082Z,13.75
2023-05-11T19:54:49.012Z,13.82
2023-05-11T19:57:37.494Z,13.54
2023-05-11T20:00:25.409Z,13.74
2023-05-11T20:03:11.629Z,13.79
2023-05-11T20:05:57.878Z,13.72
2023-05-11T20:08:46.384Z,13.69
2023-05-11T20:11:34.183Z,13.60
2023-05-11T20:14:20.323Z,13.55
2023-05-11T20:17:07.510Z,13.45
2023-05-11T20:19:53.806Z,13.33
2023-05-11T20:22:39.880Z,13.41
2023-05-11T20:25:26.681Z,13.43
2023-05-11T20:28:12.549Z,13.24
2023-05-11T20:30:58.701Z,13.29
2023-05-11T20:36:34.600Z,13.27
2023-05-11T20:39:26.218Z,13.20
2023-05-11T20:42:12.449Z,13.00
2023-05-11T20:45:07.445Z,13.01
2023-05-11T20:47:53.974Z,13.02
2023-05-11T20:50:40.095Z,13.04
2023-05-11T20:53:26.847Z,12.97
2023-05-11T20:56:13.790Z,12.78
2023-05-11T20:59:00.381Z,12.87
2023-05-11T21:01:46.956Z,12.84
2023-05-11T21:04:34.106Z,12.79
2023-05-11T21:07:23.210Z,12.62
2023-05-11T21:10:12.098Z,12.73
2023-05-11T21:12:58.068Z,12.65
2023-05-11T21:15:44.834Z,12.56
2023-05-11T21:18:34.526Z,12.61
2023-05-11T21:21:21.372Z,12.57
2023-05-11T21:24:07.317Z,12.46
2023-05-11T21:26:53.677Z,12.51
2023-05-11T21:29:39.394Z,12.38
2023-05-11T21:32:25.539Z,12.07
2023-05-11T21:35:11.830Z,12.33
2023-05-11T21:37:58.268Z,12.37
2023-05-11T21:40:44.554Z,12.32
2023-05-11T21:43:31.181Z,12.13
2023-05-11T21:46:17.560Z,12.20
2023-05-11T21:49:03.886Z,12.27
2023-05-11T21:51:50.320Z,12.17
2023-05-11T21:54:36.721Z,12.14
2023-05-11T21:57:23.032Z,12.03
2023-05-11T22:00:10.869Z,12.07
2023-05-11T22:02:56.819Z,12.02
2023-05-11T22:05:43.471Z,11.93
2023-05-11T22:08:29.442Z,11.83
2023-05-11T22:11:16.156Z,11.75
2023-05-11T22:14:02.314Z,11.80
2023-05-11T22:16:48.722Z,11.67
2023-05-11T22:19:34.629Z,11.75
2023-05-11T22:22:20.997Z,11.58
2023-05-11T22:25:08.177Z,11.62
2023-05-11T22:27:54.027Z,11.60
2023-05-11T22:30:39.576Z,11.55
2023-05-11T22:33:26.031Z,11.34
2023-05-11T22:36:12.309Z,11.36
2023-05-11T22:38:58.638Z,11.48
2023-05-11T22:41:44.403Z,11.28
2023-05-11T22:44:31.038Z,11.41
2023-05-11T22:47:17.222Z,11.32
2023-05-11T22:50:03.813Z,11.29
2023-05-11T22:52:50.213Z,11.29
2023-05-11T22:55:38.673Z,11.14
2023-05-11T22:58:25.260Z,10.98
2023-05-11T23:01:12.447Z,11.09
2023-05-11T23:03:58.590Z,11.08
2023-05-11T23:06:44.794Z,11.08
2023-05-11T23:09:30.418Z,11.04
2023-05-11T23:12:18.439Z,10.77
2023-05-11T23:15:05.212Z,10.71
2023-05-11T23:17:52.770Z,10.87
2023-05-11T23:20:39.066Z,10.91
2023-05-11T23:23:25.532Z,10.81
2023-05-11T23:26:11.264Z,10.63
2023-05-11T23:28:57.755Z,10.68
2023-05-11T23:31:43.880Z,10.80
2023-05-11T23:34:30.550Z,10.72
2023-05-11T23:37:17.009Z,10.70
2023-05-11T23:40:04.233Z,10.72
2023-05-11T23:42:50.182Z,10.56
2023-05-11T23:45:37.326Z,10.55
2023-05-11T23:48:24.372Z,10.51
2023-05-11T23:51:11.832Z,10.47
2023-05-11T23:54:03.159Z,10.53
2023-05-11T23:56:50.020Z,10.54
2023-05-11T23:59:38.964Z,10.50
